sensor_id;sensor_type;location;lat;lon;timestamp;P1;durP1;ratioP1;P2;durP2;ratioP2
81298;SDS011;70766;53.170;18.160;2023-07-22T00:02:09;3.90;;;2.20;;
81298;SDS011;70766;53.170;18.160;2023-07-22T00:04:37;5.30;;;2.20;;
81298;SDS011;70766;53.170;18.160;2023-07-22T00:07:05;3.70;;;2.30;;
81298;SDS011;70766;53.170;18.160;2023-07-22T00:09:33;6.30;;;2.80;;
81298;SDS011;70766;53.170;18.160;2023-07-22T00:12:02;5.00;;;2.50;;
81298;SDS011;70766;53.170;18.160;2023-07-22T00:14:30;3.90;;;2.40;;
81298;SDS011;70766;53.170;18.160;2023-07-22T00:16:58;4.60;;;2.30;;
81298;SDS011;70766;53.170;18.160;2023-07-22T00:19:26;5.30;;;2.50;;
81298;SDS011;70766;53.170;18.160;2023-07-22T00:21:54;4.60;;;2.80;;
81298;SDS011;70766;53.170;18.160;2023-07-22T00:24:23;4.00;;;2.10;;
81298;SDS011;70766;53.170;18.160;2023-07-22T00:26:51;4.20;;;2.40;;
81298;SDS011;70766;53.170;18.160;2023-07-22T00:29:19;4.30;;;2.30;;
81298;SDS011;70766;53.170;18.160;2023-07-22T00:31:47;5.00;;;2.60;;
81298;SDS011;70766;53.170;18.160;2023-07-22T00:34:15;6.00;;;2.80;;
81298;SDS011;70766;53.170;18.160;2023-07-22T00:36:44;7.30;;;2.90;;
81298;SDS011;70766;53.170;18.160;2023-07-22T00:39:12;5.40;;;2.80;;
81298;SDS011;70766;53.170;18.160;2023-07-22T00:41:41;6.90;;;2.90;;
81298;SDS011;70766;53.170;18.160;2023-07-22T00:44:12;4.90;;;2.70;;
81298;SDS011;70766;53.170;18.160;2023-07-22T00:46:40;5.80;;;2.70;;
81298;SDS011;70766;53.170;18.160;2023-07-22T00:49:08;5.20;;;2.60;;
81298;SDS011;70766;53.170;18.160;2023-07-22T00:51:36;4.00;;;2.40;;
81298;SDS011;70766;53.170;18.160;2023-07-22T00:54:05;4.50;;;2.70;;
81298;SDS011;70766;53.170;18.160;2023-07-22T00:56:35;5.50;;;2.80;;
81298;SDS011;70766;53.170;18.160;2023-07-22T00:59:04;7.90;;;3.30;;
81298;SDS011;70766;53.170;18.160;2023-07-22T01:01:33;4.50;;;2.80;;
81298;SDS011;70766;53.170;18.160;2023-07-22T01:04:01;4.30;;;2.60;;
81298;SDS011;70766;53.170;18.160;2023-07-22T01:06:32;5.20;;;2.70;;
81298;SDS011;70766;53.170;18.160;2023-07-22T01:09:02;7.20;;;3.10;;
81298;SDS011;70766;53.170;18.160;2023-07-22T01:11:35;3.50;;;2.20;;
81298;SDS011;70766;53.170;18.160;2023-07-22T01:14:03;5.40;;;2.40;;
81298;SDS011;70766;53.170;18.160;2023-07-22T01:16:31;5.10;;;2.20;;
81298;SDS011;70766;53.170;18.160;2023-07-22T01:19:00;5.60;;;2.60;;
81298;SDS011;70766;53.170;18.160;2023-07-22T01:21:28;4.50;;;2.50;;
81298;SDS011;70766;53.170;18.160;2023-07-22T01:23:57;4.30;;;2.60;;
81298;SDS011;70766;53.170;18.160;2023-07-22T01:26:25;6.50;;;3.00;;
81298;SDS011;70766;53.170;18.160;2023-07-22T01:29:04;3.70;;;1.90;;
81298;SDS011;70766;53.170;18.160;2023-07-22T01:31:34;4.80;;;2.40;;
81298;SDS011;70766;53.170;18.160;2023-07-22T01:34:03;6.30;;;2.60;;
81298;SDS011;70766;53.170;18.160;2023-07-22T01:36:32;5.40;;;2.80;;
81298;SDS011;70766;53.170;18.160;2023-07-22T01:39:00;3.80;;;2.30;;
81298;SDS011;70766;53.170;18.160;2023-07-22T01:41:28;4.50;;;2.40;;
81298;SDS011;70766;53.170;18.160;2023-07-22T01:43:56;4.90;;;2.50;;
81298;SDS011;70766;53.170;18.160;2023-07-22T01:46:24;4.40;;;2.70;;
81298;SDS011;70766;53.170;18.160;2023-07-22T01:48:55;5.50;;;2.60;;
81298;SDS011;70766;53.170;18.160;2023-07-22T01:51:23;4.80;;;2.60;;
81298;SDS011;70766;53.170;18.160;2023-07-22T01:53:53;5.00;;;2.40;;
81298;SDS011;70766;53.170;18.160;2023-07-22T01:56:21;4.80;;;2.50;;
81298;SDS011;70766;53.170;18.160;2023-07-22T01:58:49;5.70;;;2.00;;
81298;SDS011;70766;53.170;18.160;2023-07-22T02:01:17;5.30;;;2.70;;
81298;SDS011;70766;53.170;18.160;2023-07-22T02:03:45;4.90;;;2.50;;
81298;SDS011;70766;53.170;18.160;2023-07-22T02:06:14;5.20;;;2.60;;
81298;SDS011;70766;53.170;18.160;2023-07-22T02:08:43;4.40;;;2.30;;
81298;SDS011;70766;53.170;18.160;2023-07-22T02:11:11;5.30;;;2.30;;
81298;SDS011;70766;53.170;18.160;2023-07-22T02:13:39;6.00;;;2.80;;
81298;SDS011;70766;53.170;18.160;2023-07-22T02:16:07;6.10;;;2.90;;
81298;SDS011;70766;53.170;18.160;2023-07-22T02:18:39;4.50;;;2.90;;
81298;SDS011;70766;53.170;18.160;2023-07-22T02:21:07;5.00;;;2.80;;
81298;SDS011;70766;53.170;18.160;2023-07-22T02:23:35;4.40;;;2.60;;
81298;SDS011;70766;53.170;18.160;2023-07-22T02:26:03;6.30;;;2.80;;
81298;SDS011;70766;53.170;18.160;2023-07-22T02:28:32;4.00;;;2.60;;
81298;SDS011;70766;53.170;18.160;2023-07-22T02:31:02;5.70;;;2.80;;
81298;SDS011;70766;53.170;18.160;2023-07-22T02:33:35;5.00;;;2.80;;
81298;SDS011;70766;53.170;18.160;2023-07-22T02:36:03;7.00;;;3.00;;
81298;SDS011;70766;53.170;18.160;2023-07-22T02:38:31;7.00;;;3.10;;
81298;SDS011;70766;53.170;18.160;2023-07-22T02:41:03;6.50;;;2.60;;
81298;SDS011;70766;53.170;18.160;2023-07-22T02:43:34;3.80;;;2.30;;
81298;SDS011;70766;53.170;18.160;2023-07-22T02:46:03;5.00;;;2.50;;
81298;SDS011;70766;53.170;18.160;2023-07-22T02:48:36;3.10;;;2.30;;
81298;SDS011;70766;53.170;18.160;2023-07-22T02:53:33;4.50;;;2.40;;
81298;SDS011;70766;53.170;18.160;2023-07-22T02:56:04;4.20;;;2.60;;
81298;SDS011;70766;53.170;18.160;2023-07-22T02:58:39;4.60;;;2.40;;
81298;SDS011;70766;53.170;18.160;2023-07-22T03:01:09;4.70;;;2.70;;
81298;SDS011;70766;53.170;18.160;2023-07-22T03:03:38;4.40;;;2.60;;
81298;SDS011;70766;53.170;18.160;2023-07-22T03:06:08;4.70;;;2.80;;
81298;SDS011;70766;53.170;18.160;2023-07-22T03:08:37;5.40;;;3.00;;
81298;SDS011;70766;53.170;18.160;2023-07-22T03:11:05;4.70;;;2.80;;
81298;SDS011;70766;53.170;18.160;2023-07-22T03:13:34;3.90;;;2.40;;
81298;SDS011;70766;53.170;18.160;2023-07-22T03:16:03;7.40;;;3.00;;
81298;SDS011;70766;53.170;18.160;2023-07-22T03:18:32;4.80;;;2.50;;
81298;SDS011;70766;53.170;18.160;2023-07-22T03:21:00;5.40;;;2.70;;
81298;SDS011;70766;53.170;18.160;2023-07-22T03:23:28;4.70;;;2.70;;
81298;SDS011;70766;53.170;18.160;2023-07-22T03:25:56;6.00;;;3.30;;
81298;SDS011;70766;53.170;18.160;2023-07-22T03:28:24;5.90;;;3.00;;
81298;SDS011;70766;53.170;18.160;2023-07-22T03:30:53;6.30;;;2.80;;
81298;SDS011;70766;53.170;18.160;2023-07-22T03:33:22;6.70;;;3.00;;
81298;SDS011;70766;53.170;18.160;2023-07-22T03:35:50;4.80;;;2.90;;
81298;SDS011;70766;53.170;18.160;2023-07-22T03:38:18;4.80;;;2.60;;
81298;SDS011;70766;53.170;18.160;2023-07-22T03:40:46;4.10;;;2.60;;
81298;SDS011;70766;53.170;18.160;2023-07-22T03:43:15;4.70;;;2.70;;
81298;SDS011;70766;53.170;18.160;2023-07-22T03:45:43;5.40;;;2.90;;
81298;SDS011;70766;53.170;18.160;2023-07-22T03:48:11;8.30;;;2.90;;
81298;SDS011;70766;53.170;18.160;2023-07-22T03:50:39;6.30;;;3.20;;
81298;SDS011;70766;53.170;18.160;2023-07-22T03:53:07;6.80;;;3.40;;
81298;SDS011;70766;53.170;18.160;2023-07-22T03:55:36;6.70;;;3.10;;
81298;SDS011;70766;53.170;18.160;2023-07-22T03:58:04;5.90;;;3.20;;
81298;SDS011;70766;53.170;18.160;2023-07-22T04:00:32;6.50;;;3.50;;
81298;SDS011;70766;53.170;18.160;2023-07-22T04:03:00;4.90;;;2.80;;
81298;SDS011;70766;53.170;18.160;2023-07-22T04:05:28;5.00;;;2.90;;
81298;SDS011;70766;53.170;18.160;2023-07-22T04:07:56;5.20;;;2.90;;
81298;SDS011;70766;53.170;18.160;2023-07-22T04:10:24;5.80;;;3.00;;
81298;SDS011;70766;53.170;18.160;2023-07-22T04:12:52;5.60;;;3.00;;
81298;SDS011;70766;53.170;18.160;2023-07-22T04:15:20;4.70;;;3.40;;
81298;SDS011;70766;53.170;18.160;2023-07-22T04:17:48;6.30;;;3.30;;
81298;SDS011;70766;53.170;18.160;2023-07-22T04:20:17;6.60;;;3.30;;
81298;SDS011;70766;53.170;18.160;2023-07-22T04:22:45;5.20;;;3.10;;
81298;SDS011;70766;53.170;18.160;2023-07-22T04:25:13;5.70;;;3.20;;
81298;SDS011;70766;53.170;18.160;2023-07-22T04:27:42;6.60;;;3.70;;
81298;SDS011;70766;53.170;18.160;2023-07-22T04:30:11;5.60;;;2.80;;
81298;SDS011;70766;53.170;18.160;2023-07-22T04:32:42;6.60;;;3.30;;
81298;SDS011;70766;53.170;18.160;2023-07-22T04:35:11;6.00;;;3.00;;
81298;SDS011;70766;53.170;18.160;2023-07-22T04:37:39;5.20;;;3.20;;
81298;SDS011;70766;53.170;18.160;2023-07-22T04:40:08;5.60;;;3.60;;
81298;SDS011;70766;53.170;18.160;2023-07-22T04:42:42;4.90;;;3.30;;
81298;SDS011;70766;53.170;18.160;2023-07-22T04:45:11;4.80;;;3.10;;
81298;SDS011;70766;53.170;18.160;2023-07-22T04:47:39;7.30;;;3.40;;
81298;SDS011;70766;53.170;18.160;2023-07-22T04:50:09;5.40;;;3.30;;
81298;SDS011;70766;53.170;18.160;2023-07-22T04:52:37;4.80;;;3.10;;
81298;SDS011;70766;53.170;18.160;2023-07-22T04:55:06;4.90;;;3.00;;
81298;SDS011;70766;53.170;18.160;2023-07-22T04:57:38;5.00;;;3.60;;
81298;SDS011;70766;53.170;18.160;2023-07-22T05:00:13;7.50;;;3.70;;
81298;SDS011;70766;53.170;18.160;2023-07-22T05:02:44;3.90;;;2.90;;
81298;SDS011;70766;53.170;18.160;2023-07-22T05:05:15;4.70;;;3.30;;
81298;SDS011;70766;53.170;18.160;2023-07-22T05:07:44;3.80;;;3.10;;
81298;SDS011;70766;53.170;18.160;2023-07-22T05:10:13;4.80;;;3.10;;
81298;SDS011;70766;53.170;18.160;2023-07-22T05:12:42;4.40;;;3.10;;
81298;SDS011;70766;53.170;18.160;2023-07-22T05:15:10;5.00;;;2.60;;
81298;SDS011;70766;53.170;18.160;2023-07-22T05:17:39;4.90;;;2.90;;
81298;SDS011;70766;53.170;18.160;2023-07-22T05:20:07;4.00;;;2.80;;
81298;SDS011;70766;53.170;18.160;2023-07-22T05:22:39;3.80;;;3.10;;
81298;SDS011;70766;53.170;18.160;2023-07-22T05:25:08;4.10;;;2.70;;
81298;SDS011;70766;53.170;18.160;2023-07-22T05:27:39;3.80;;;2.70;;
81298;SDS011;70766;53.170;18.160;2023-07-22T05:30:08;4.20;;;3.00;;
81298;SDS011;70766;53.170;18.160;2023-07-22T05:32:46;5.50;;;3.20;;
81298;SDS011;70766;53.170;18.160;2023-07-22T05:35:14;4.80;;;3.00;;
81298;SDS011;70766;53.170;18.160;2023-07-22T05:37:43;5.40;;;3.00;;
81298;SDS011;70766;53.170;18.160;2023-07-22T05:40:11;4.60;;;2.80;;
81298;SDS011;70766;53.170;18.160;2023-07-22T05:42:39;4.60;;;3.00;;
81298;SDS011;70766;53.170;18.160;2023-07-22T05:45:07;4.40;;;2.70;;
81298;SDS011;70766;53.170;18.160;2023-07-22T05:47:35;3.70;;;2.60;;
81298;SDS011;70766;53.170;18.160;2023-07-22T05:50:04;4.30;;;2.90;;
81298;SDS011;70766;53.170;18.160;2023-07-22T05:52:34;4.10;;;2.60;;
81298;SDS011;70766;53.170;18.160;2023-07-22T05:55:02;4.20;;;3.00;;
81298;SDS011;70766;53.170;18.160;2023-07-22T05:57:30;4.70;;;3.00;;
81298;SDS011;70766;53.170;18.160;2023-07-22T05:59:59;5.60;;;3.30;;
81298;SDS011;70766;53.170;18.160;2023-07-22T06:02:38;4.50;;;2.90;;
81298;SDS011;70766;53.170;18.160;2023-07-22T06:05:07;4.80;;;3.00;;
81298;SDS011;70766;53.170;18.160;2023-07-22T06:07:35;3.20;;;2.90;;
81298;SDS011;70766;53.170;18.160;2023-07-22T06:10:05;4.50;;;3.20;;
81298;SDS011;70766;53.170;18.160;2023-07-22T06:12:34;4.30;;;3.00;;
81298;SDS011;70766;53.170;18.160;2023-07-22T06:15:03;3.90;;;2.90;;
81298;SDS011;70766;53.170;18.160;2023-07-22T06:17:31;5.70;;;3.20;;
81298;SDS011;70766;53.170;18.160;2023-07-22T06:19:59;5.50;;;3.20;;
81298;SDS011;70766;53.170;18.160;2023-07-22T06:22:27;5.20;;;3.20;;
81298;SDS011;70766;53.170;18.160;2023-07-22T06:24:55;3.60;;;3.10;;
81298;SDS011;70766;53.170;18.160;2023-07-22T06:27:24;4.10;;;2.70;;
81298;SDS011;70766;53.170;18.160;2023-07-22T06:29:52;6.20;;;3.50;;
81298;SDS011;70766;53.170;18.160;2023-07-22T06:32:20;3.70;;;2.60;;
81298;SDS011;70766;53.170;18.160;2023-07-22T06:34:48;4.60;;;2.90;;
81298;SDS011;70766;53.170;18.160;2023-07-22T06:37:16;4.10;;;3.10;;
81298;SDS011;70766;53.170;18.160;2023-07-22T06:39:44;4.60;;;2.90;;
81298;SDS011;70766;53.170;18.160;2023-07-22T06:42:12;3.00;;;2.70;;
81298;SDS011;70766;53.170;18.160;2023-07-22T06:44:40;3.20;;;2.40;;
81298;SDS011;70766;53.170;18.160;2023-07-22T06:47:08;4.10;;;3.00;;
81298;SDS011;70766;53.170;18.160;2023-07-22T06:49:36;4.20;;;2.50;;
81298;SDS011;70766;53.170;18.160;2023-07-22T06:52:04;4.00;;;2.90;;
81298;SDS011;70766;53.170;18.160;2023-07-22T06:54:33;5.30;;;3.00;;
81298;SDS011;70766;53.170;18.160;2023-07-22T06:57:02;3.40;;;2.40;;
81298;SDS011;70766;53.170;18.160;2023-07-22T06:59:30;3.60;;;2.60;;
81298;SDS011;70766;53.170;18.160;2023-07-22T07:01:58;6.60;;;2.90;;
81298;SDS011;70766;53.170;18.160;2023-07-22T07:04:27;5.60;;;2.60;;
81298;SDS011;70766;53.170;18.160;2023-07-22T07:06:55;2.60;;;2.40;;
81298;SDS011;70766;53.170;18.160;2023-07-22T07:09:23;5.20;;;2.40;;
81298;SDS011;70766;53.170;18.160;2023-07-22T07:11:51;5.90;;;2.60;;
81298;SDS011;70766;53.170;18.160;2023-07-22T07:14:19;7.00;;;2.80;;
81298;SDS011;70766;53.170;18.160;2023-07-22T07:16:47;4.10;;;2.30;;
81298;SDS011;70766;53.170;18.160;2023-07-22T07:19:15;6.50;;;2.50;;
81298;SDS011;70766;53.170;18.160;2023-07-22T07:21:43;5.70;;;2.50;;
81298;SDS011;70766;53.170;18.160;2023-07-22T07:24:11;3.80;;;2.50;;
81298;SDS011;70766;53.170;18.160;2023-07-22T07:26:40;6.60;;;2.40;;
81298;SDS011;70766;53.170;18.160;2023-07-22T07:29:08;3.00;;;2.10;;
81298;SDS011;70766;53.170;18.160;2023-07-22T07:31:36;7.30;;;2.70;;
81298;SDS011;70766;53.170;18.160;2023-07-22T07:34:05;4.20;;;2.30;;
81298;SDS011;70766;53.170;18.160;2023-07-22T07:36:34;4.20;;;2.40;;
81298;SDS011;70766;53.170;18.160;2023-07-22T07:39:02;3.70;;;2.20;;
81298;SDS011;70766;53.170;18.160;2023-07-22T07:41:31;4.40;;;2.60;;
81298;SDS011;70766;53.170;18.160;2023-07-22T07:43:59;3.00;;;2.20;;
81298;SDS011;70766;53.170;18.160;2023-07-22T07:46:27;4.40;;;2.80;;
81298;SDS011;70766;53.170;18.160;2023-07-22T07:48:57;3.80;;;2.30;;
81298;SDS011;70766;53.170;18.160;2023-07-22T07:51:31;5.90;;;2.60;;
81298;SDS011;70766;53.170;18.160;2023-07-22T07:53:59;3.20;;;2.10;;
81298;SDS011;70766;53.170;18.160;2023-07-22T07:56:28;3.60;;;2.30;;
81298;SDS011;70766;53.170;18.160;2023-07-22T07:58:57;5.80;;;2.50;;
81298;SDS011;70766;53.170;18.160;2023-07-22T08:01:26;3.20;;;2.80;;
81298;SDS011;70766;53.170;18.160;2023-07-22T08:03:54;4.20;;;2.40;;
81298;SDS011;70766;53.170;18.160;2023-07-22T08:06:29;2.70;;;2.10;;
81298;SDS011;70766;53.170;18.160;2023-07-22T08:09:00;6.40;;;2.20;;
81298;SDS011;70766;53.170;18.160;2023-07-22T08:11:28;3.60;;;2.40;;
81298;SDS011;70766;53.170;18.160;2023-07-22T08:13:57;4.10;;;2.50;;
81298;SDS011;70766;53.170;18.160;2023-07-22T08:16:26;5.70;;;2.40;;
81298;SDS011;70766;53.170;18.160;2023-07-22T08:18:54;5.50;;;2.30;;
81298;SDS011;70766;53.170;18.160;2023-07-22T08:21:23;3.50;;;2.10;;
81298;SDS011;70766;53.170;18.160;2023-07-22T08:23:56;5.00;;;2.40;;
81298;SDS011;70766;53.170;18.160;2023-07-22T08:26:25;3.40;;;2.50;;
81298;SDS011;70766;53.170;18.160;2023-07-22T08:28:54;4.30;;;2.20;;
81298;SDS011;70766;53.170;18.160;2023-07-22T08:31:25;3.00;;;2.00;;
81298;SDS011;70766;53.170;18.160;2023-07-22T08:33:54;4.70;;;2.20;;
81298;SDS011;70766;53.170;18.160;2023-07-22T08:36:22;4.40;;;2.40;;
81298;SDS011;70766;53.170;18.160;2023-07-22T08:38:50;6.50;;;2.20;;
81298;SDS011;70766;53.170;18.160;2023-07-22T08:41:18;4.70;;;2.20;;
81298;SDS011;70766;53.170;18.160;2023-07-22T08:43:46;3.40;;;2.20;;
81298;SDS011;70766;53.170;18.160;2023-07-22T08:46:15;4.10;;;2.20;;
81298;SDS011;70766;53.170;18.160;2023-07-22T08:48:47;3.20;;;2.10;;
81298;SDS011;70766;53.170;18.160;2023-07-22T08:51:21;2.80;;;2.30;;
81298;SDS011;70766;53.170;18.160;2023-07-22T08:53:51;4.40;;;2.20;;
81298;SDS011;70766;53.170;18.160;2023-07-22T08:56:40;4.50;;;2.30;;
81298;SDS011;70766;53.170;18.160;2023-07-22T08:59:21;4.70;;;2.40;;
81298;SDS011;70766;53.170;18.160;2023-07-22T09:01:49;3.40;;;2.20;;
81298;SDS011;70766;53.170;18.160;2023-07-22T09:04:20;4.30;;;2.00;;
81298;SDS011;70766;53.170;18.160;2023-07-22T09:06:48;3.50;;;2.40;;
81298;SDS011;70766;53.170;18.160;2023-07-22T09:09:16;3.10;;;2.60;;
81298;SDS011;70766;53.170;18.160;2023-07-22T09:11:45;2.70;;;1.90;;
81298;SDS011;70766;53.170;18.160;2023-07-22T09:14:15;3.80;;;2.50;;
81298;SDS011;70766;53.170;18.160;2023-07-22T09:17:03;5.80;;;3.70;;
81298;SDS011;70766;53.170;18.160;2023-07-22T09:19:32;8.50;;;3.60;;
81298;SDS011;70766;53.170;18.160;2023-07-22T09:22:01;3.90;;;3.40;;
81298;SDS011;70766;53.170;18.160;2023-07-22T09:24:29;4.50;;;3.70;;
81298;SDS011;70766;53.170;18.160;2023-07-22T09:26:57;4.50;;;2.70;;
81298;SDS011;70766;53.170;18.160;2023-07-22T09:29:36;4.80;;;3.50;;
81298;SDS011;70766;53.170;18.160;2023-07-22T09:32:08;8.40;;;3.20;;
81298;SDS011;70766;53.170;18.160;2023-07-22T09:34:37;5.80;;;3.30;;
81298;SDS011;70766;53.170;18.160;2023-07-22T09:37:05;4.80;;;3.60;;
81298;SDS011;70766;53.170;18.160;2023-07-22T09:39:34;3.50;;;3.10;;
81298;SDS011;70766;53.170;18.160;2023-07-22T09:42:03;6.00;;;4.40;;
81298;SDS011;70766;53.170;18.160;2023-07-22T09:44:32;5.30;;;4.40;;
81298;SDS011;70766;53.170;18.160;2023-07-22T09:47:05;5.00;;;4.40;;
81298;SDS011;70766;53.170;18.160;2023-07-22T09:49:39;5.90;;;4.60;;
81298;SDS011;70766;53.170;18.160;2023-07-22T09:52:09;5.10;;;4.20;;
81298;SDS011;70766;53.170;18.160;2023-07-22T09:54:46;7.70;;;5.20;;
81298;SDS011;70766;53.170;18.160;2023-07-22T09:57:17;6.90;;;5.20;;
81298;SDS011;70766;53.170;18.160;2023-07-22T09:59:48;5.70;;;5.10;;
81298;SDS011;70766;53.170;18.160;2023-07-22T10:02:20;8.20;;;5.60;;
81298;SDS011;70766;53.170;18.160;2023-07-22T10:04:51;7.70;;;5.60;;
81298;SDS011;70766;53.170;18.160;2023-07-22T10:07:21;7.90;;;5.10;;
81298;SDS011;70766;53.170;18.160;2023-07-22T10:09:51;7.50;;;5.60;;
81298;SDS011;70766;53.170;18.160;2023-07-22T10:12:24;8.70;;;5.70;;
81298;SDS011;70766;53.170;18.160;2023-07-22T10:14:52;6.40;;;5.10;;
81298;SDS011;70766;53.170;18.160;2023-07-22T10:17:21;5.90;;;5.30;;
81298;SDS011;70766;53.170;18.160;2023-07-22T10:19:50;9.40;;;5.90;;
81298;SDS011;70766;53.170;18.160;2023-07-22T10:22:20;8.20;;;5.70;;
81298;SDS011;70766;53.170;18.160;2023-07-22T10:24:49;7.20;;;5.80;;
81298;SDS011;70766;53.170;18.160;2023-07-22T10:27:20;9.30;;;6.70;;
81298;SDS011;70766;53.170;18.160;2023-07-22T10:29:51;8.80;;;5.40;;
81298;SDS011;70766;53.170;18.160;2023-07-22T10:32:23;5.90;;;4.80;;
81298;SDS011;70766;53.170;18.160;2023-07-22T10:34:51;6.90;;;4.40;;
81298;SDS011;70766;53.170;18.160;2023-07-22T10:37:19;5.90;;;4.40;;
81298;SDS011;70766;53.170;18.160;2023-07-22T10:39:52;5.60;;;4.10;;
81298;SDS011;70766;53.170;18.160;2023-07-22T10:42:24;7.30;;;4.20;;
81298;SDS011;70766;53.170;18.160;2023-07-22T10:44:53;4.70;;;4.20;;
81298;SDS011;70766;53.170;18.160;2023-07-22T10:47:31;6.40;;;3.20;;
81298;SDS011;70766;53.170;18.160;2023-07-22T10:50:05;6.00;;;3.40;;
81298;SDS011;70766;53.170;18.160;2023-07-22T10:52:39;10.40;;;4.30;;
81298;SDS011;70766;53.170;18.160;2023-07-22T10:55:17;4.60;;;3.70;;
81298;SDS011;70766;53.170;18.160;2023-07-22T10:57:47;7.50;;;3.50;;
81298;SDS011;70766;53.170;18.160;2023-07-22T11:00:21;6.20;;;3.30;;
81298;SDS011;70766;53.170;18.160;2023-07-22T11:03:09;3.90;;;2.80;;
81298;SDS011;70766;53.170;18.160;2023-07-22T11:05:52;5.30;;;3.90;;
81298;SDS011;70766;53.170;18.160;2023-07-22T11:08:39;6.80;;;4.00;;
81298;SDS011;70766;53.170;18.160;2023-07-22T11:11:08;4.30;;;3.90;;
81298;SDS011;70766;53.170;18.160;2023-07-22T11:13:39;3.70;;;3.00;;
81298;SDS011;70766;53.170;18.160;2023-07-22T11:16:10;3.70;;;3.00;;
81298;SDS011;70766;53.170;18.160;2023-07-22T11:18:40;3.80;;;2.70;;
81298;SDS011;70766;53.170;18.160;2023-07-22T11:21:09;5.20;;;2.40;;
81298;SDS011;70766;53.170;18.160;2023-07-22T11:23:40;5.90;;;2.00;;
81298;SDS011;70766;53.170;18.160;2023-07-22T11:26:09;3.60;;;2.80;;
81298;SDS011;70766;53.170;18.160;2023-07-22T11:28:38;5.90;;;2.60;;
81298;SDS011;70766;53.170;18.160;2023-07-22T11:31:06;6.40;;;3.00;;
81298;SDS011;70766;53.170;18.160;2023-07-22T11:33:37;4.90;;;2.50;;
81298;SDS011;70766;53.170;18.160;2023-07-22T11:36:07;3.60;;;2.60;;
81298;SDS011;70766;53.170;18.160;2023-07-22T11:38:35;5.80;;;3.00;;
81298;SDS011;70766;53.170;18.160;2023-07-22T11:41:04;5.10;;;2.70;;
81298;SDS011;70766;53.170;18.160;2023-07-22T11:43:33;5.20;;;2.40;;
81298;SDS011;70766;53.170;18.160;2023-07-22T11:46:01;3.30;;;2.50;;
81298;SDS011;70766;53.170;18.160;2023-07-22T11:48:33;2.90;;;2.40;;
81298;SDS011;70766;53.170;18.160;2023-07-22T11:51:01;3.80;;;2.30;;
81298;SDS011;70766;53.170;18.160;2023-07-22T11:53:29;2.90;;;2.40;;
81298;SDS011;70766;53.170;18.160;2023-07-22T11:55:57;2.80;;;2.40;;
81298;SDS011;70766;53.170;18.160;2023-07-22T11:58:26;5.40;;;2.60;;
81298;SDS011;70766;53.170;18.160;2023-07-22T12:01:09;2.70;;;2.20;;
81298;SDS011;70766;53.170;18.160;2023-07-22T12:03:40;2.70;;;2.20;;
81298;SDS011;70766;53.170;18.160;2023-07-22T12:06:09;2.00;;;1.80;;
81298;SDS011;70766;53.170;18.160;2023-07-22T12:08:45;4.20;;;2.10;;
81298;SDS011;70766;53.170;18.160;2023-07-22T12:13:46;3.90;;;2.30;;
81298;SDS011;70766;53.170;18.160;2023-07-22T12:16:23;3.90;;;2.30;;
81298;SDS011;70766;53.170;18.160;2023-07-22T12:18:54;2.40;;;2.10;;
81298;SDS011;70766;53.170;18.160;2023-07-22T12:21:23;4.20;;;2.20;;
81298;SDS011;70766;53.170;18.160;2023-07-22T12:23:52;3.70;;;2.00;;
81298;SDS011;70766;53.170;18.160;2023-07-22T12:26:20;3.00;;;2.10;;
81298;SDS011;70766;53.170;18.160;2023-07-22T12:28:49;2.90;;;2.10;;
81298;SDS011;70766;53.170;18.160;2023-07-22T12:31:17;2.80;;;2.20;;
81298;SDS011;70766;53.170;18.160;2023-07-22T12:33:45;4.80;;;2.40;;
81298;SDS011;70766;53.170;18.160;2023-07-22T12:36:13;3.80;;;2.60;;
81298;SDS011;70766;53.170;18.160;2023-07-22T12:38:41;2.90;;;2.30;;
81298;SDS011;70766;53.170;18.160;2023-07-22T12:41:10;3.90;;;2.60;;
81298;SDS011;70766;53.170;18.160;2023-07-22T12:43:37;3.60;;;2.40;;
81298;SDS011;70766;53.170;18.160;2023-07-22T12:46:06;5.20;;;2.70;;
81298;SDS011;70766;53.170;18.160;2023-07-22T12:48:34;3.00;;;2.60;;
81298;SDS011;70766;53.170;18.160;2023-07-22T12:51:02;7.70;;;2.80;;
81298;SDS011;70766;53.170;18.160;2023-07-22T12:53:30;5.00;;;2.70;;
81298;SDS011;70766;53.170;18.160;2023-07-22T12:55:59;5.60;;;2.60;;
81298;SDS011;70766;53.170;18.160;2023-07-22T12:58:29;2.60;;;2.20;;
81298;SDS011;70766;53.170;18.160;2023-07-22T13:00:58;3.30;;;2.00;;
81298;SDS011;70766;53.170;18.160;2023-07-22T13:03:26;3.00;;;2.20;;
81298;SDS011;70766;53.170;18.160;2023-07-22T13:05:54;3.30;;;2.00;;
81298;SDS011;70766;53.170;18.160;2023-07-22T13:08:22;2.50;;;1.90;;
81298;SDS011;70766;53.170;18.160;2023-07-22T13:10:50;3.10;;;1.60;;
81298;SDS011;70766;53.170;18.160;2023-07-22T13:13:18;5.30;;;2.30;;
81298;SDS011;70766;53.170;18.160;2023-07-22T13:15:46;3.30;;;2.20;;
81298;SDS011;70766;53.170;18.160;2023-07-22T13:18:14;3.30;;;2.30;;
81298;SDS011;70766;53.170;18.160;2023-07-22T13:20:44;4.00;;;2.70;;
81298;SDS011;70766;53.170;18.160;2023-07-22T13:23:12;2.90;;;2.10;;
81298;SDS011;70766;53.170;18.160;2023-07-22T13:25:40;7.40;;;2.50;;
81298;SDS011;70766;53.170;18.160;2023-07-22T13:28:08;5.60;;;2.50;;
81298;SDS011;70766;53.170;18.160;2023-07-22T13:30:36;3.50;;;2.10;;
81298;SDS011;70766;53.170;18.160;2023-07-22T13:33:04;4.90;;;2.20;;
81298;SDS011;70766;53.170;18.160;2023-07-22T13:35:32;5.90;;;2.50;;
81298;SDS011;70766;53.170;18.160;2023-07-22T13:38:01;3.00;;;2.50;;
81298;SDS011;70766;53.170;18.160;2023-07-22T13:40:29;3.80;;;2.80;;
81298;SDS011;70766;53.170;18.160;2023-07-22T13:42:57;4.40;;;2.70;;
81298;SDS011;70766;53.170;18.160;2023-07-22T13:45:25;6.20;;;2.70;;
81298;SDS011;70766;53.170;18.160;2023-07-22T13:47:54;3.90;;;2.40;;
81298;SDS011;70766;53.170;18.160;2023-07-22T13:50:22;4.30;;;2.70;;
81298;SDS011;70766;53.170;18.160;2023-07-22T13:52:50;3.30;;;2.80;;
81298;SDS011;70766;53.170;18.160;2023-07-22T13:55:18;3.10;;;2.30;;
81298;SDS011;70766;53.170;18.160;2023-07-22T13:57:47;4.10;;;2.50;;
81298;SDS011;70766;53.170;18.160;2023-07-22T14:00:15;4.60;;;2.30;;
81298;SDS011;70766;53.170;18.160;2023-07-22T14:02:43;3.70;;;2.30;;
81298;SDS011;70766;53.170;18.160;2023-07-22T14:05:11;2.80;;;2.10;;
81298;SDS011;70766;53.170;18.160;2023-07-22T14:07:40;5.00;;;2.60;;
81298;SDS011;70766;53.170;18.160;2023-07-22T14:10:08;3.40;;;2.20;;
81298;SDS011;70766;53.170;18.160;2023-07-22T14:12:37;5.00;;;2.70;;
81298;SDS011;70766;53.170;18.160;2023-07-22T14:15:05;7.70;;;2.60;;
81298;SDS011;70766;53.170;18.160;2023-07-22T14:17:34;6.30;;;2.90;;
81298;SDS011;70766;53.170;18.160;2023-07-22T14:20:02;4.60;;;2.40;;
81298;SDS011;70766;53.170;18.160;2023-07-22T14:22:32;4.40;;;2.50;;
81298;SDS011;70766;53.170;18.160;2023-07-22T14:25:01;6.40;;;2.50;;
81298;SDS011;70766;53.170;18.160;2023-07-22T14:27:30;4.20;;;2.40;;
81298;SDS011;70766;53.170;18.160;2023-07-22T14:29:58;5.20;;;2.30;;
81298;SDS011;70766;53.170;18.160;2023-07-22T14:32:26;4.30;;;2.40;;
81298;SDS011;70766;53.170;18.160;2023-07-22T14:34:54;5.90;;;2.40;;
81298;SDS011;70766;53.170;18.160;2023-07-22T14:37:22;3.80;;;2.60;;
81298;SDS011;70766;53.170;18.160;2023-07-22T14:39:51;5.00;;;2.50;;
81298;SDS011;70766;53.170;18.160;2023-07-22T14:42:18;5.00;;;2.80;;
81298;SDS011;70766;53.170;18.160;2023-07-22T14:44:47;5.40;;;2.60;;
81298;SDS011;70766;53.170;18.160;2023-07-22T14:47:15;3.80;;;2.40;;
81298;SDS011;70766;53.170;18.160;2023-07-22T14:49:43;4.70;;;2.70;;
81298;SDS011;70766;53.170;18.160;2023-07-22T14:52:11;3.30;;;2.50;;